Time;durP1;ratioP1;P1;durP2;ratioP2;P2;SDS_P1;SDS_P2;PMS_P1;PMS_P2;Temp;Humidity;BMP_temperature;BMP_pressure;BME280_temperature;BME280_humidity;BME280_pressure;Samples;Min_cycle;Max_cycle;Signal;HPM_P1;HPM_P2
2024/01/02 00:01:35;;;;;;;0.00;0.00;;;5.80;99.90;;;;;;5062218;28;20487;-67
2024/01/02 00:04:01;;;;;;;0.10;0.10;;;5.80;99.90;;;;;;5065297;28;20041;-67
2024/01/02 00:06:27;;;;;;;0.10;0.10;;;5.90;99.90;;;;;;5067291;28;20545;-67
2024/01/02 00:08:53;;;;;;;0.00;0.00;;;5.90;99.90;;;;;;5093697;27;20044;-68
2024/01/02 00:11:19;;;;;;;0.00;0.00;;;5.90;99.90;;;;;;5065808;28;20446;-67
2024/01/02 00:13:44;;;;;;;0.17;0.17;;;5.90;99.90;;;;;;5063875;28;20036;-67
2024/01/02 00:16:10;;;;;;;0.10;0.10;;;5.90;99.90;;;;;;5067422;28;20548;-68
2024/01/02 00:18:35;;;;;;;0.70;0.50;;;5.90;99.90;;;;;;5065203;28;20403;-67
2024/01/02 00:21:02;;;;;;;0.32;0.32;;;5.90;99.90;;;;;;5059199;28;20391;-68
2024/01/02 00:23:27;;;;;;;0.28;0.28;;;6.00;99.90;;;;;;5060674;28;20044;-68
2024/01/02 00:25:53;;;;;;;0.20;0.20;;;5.90;99.90;;;;;;5064031;28;20044;-69
2024/01/02 00:28:19;;;;;;;1.15;0.28;;;6.00;99.90;;;;;;5065294;28;20131;-68
2024/01/02 00:30:45;;;;;;;0.00;0.00;;;6.00;99.90;;;;;;5082242;28;20094;-68
2024/01/02 00:33:10;;;;;;;0.20;0.20;;;6.00;99.90;;;;;;5064693;28;20048;-68
2024/01/02 00:35:37;;;;;;;0.10;0.10;;;6.00;99.90;;;;;;5065410;28;20047;-69
2024/01/02 00:38:03;;;;;;;0.10;0.10;;;6.00;99.90;;;;;;5066728;28;20039;-67
2024/01/02 00:40:28;;;;;;;0.05;0.05;;;6.00;99.90;;;;;;5069479;28;20044;-69
2024/01/02 00:42:54;;;;;;;0.08;0.08;;;6.10;99.90;;;;;;5063458;28;20036;-68
2024/01/02 00:45:20;;;;;;;3.13;0.20;;;6.10;99.90;;;;;;5092522;28;20472;-68
2024/01/02 00:47:45;;;;;;;0.60;0.25;;;6.10;99.90;;;;;;5083976;28;20381;-69
2024/01/02 00:50:11;;;;;;;0.10;0.10;;;6.10;99.90;;;;;;5069224;28;20045;-70
2024/01/02 00:52:36;;;;;;;0.55;0.28;;;6.10;99.90;;;;;;5061864;28;20040;-70
2024/01/02 00:55:04;;;;;;;0.10;0.10;;;6.20;99.90;;;;;;5066195;28;20509;-69
2024/01/02 00:57:30;;;;;;;3.33;0.88;;;6.10;99.90;;;;;;5066574;28;20044;-69
2024/01/02 00:59:55;;;;;;;0.22;0.22;;;6.20;99.90;;;;;;5061795;28;21462;-69
2024/01/02 01:02:21;;;;;;;0.20;0.20;;;6.20;99.90;;;;;;5065209;28;20613;-69
2024/01/02 01:04:47;;;;;;;0.10;0.10;;;6.30;99.90;;;;;;5064413;28;20422;-69
2024/01/02 01:07:13;;;;;;;0.10;0.10;;;6.20;99.90;;;;;;5065494;28;20646;-69
2024/01/02 01:09:39;;;;;;;0.08;0.08;;;6.20;99.90;;;;;;5065800;28;20044;-68
2024/01/02 01:12:05;;;;;;;0.57;0.50;;;6.20;99.90;;;;;;5064192;28;20048;-68
2024/01/02 01:14:31;;;;;;;0.10;0.10;;;6.20;99.90;;;;;;5068042;28;20063;-69
2024/01/02 01:16:57;;;;;;;0.10;0.10;;;6.20;99.90;;;;;;5066212;28;20044;-69
2024/01/02 01:19:22;;;;;;;0.20;0.20;;;6.20;99.90;;;;;;5070715;28;20090;-68
2024/01/02 01:21:48;;;;;;;0.70;0.30;;;6.20;99.90;;;;;;5068318;28;20418;-69
2024/01/02 01:24:13;;;;;;;0.17;0.17;;;6.30;99.90;;;;;;5063781;28;20040;-69
2024/01/02 01:26:39;;;;;;;0.20;0.20;;;6.30;99.90;;;;;;5077262;28;20126;-69
2024/01/02 01:29:04;;;;;;;0.10;0.10;;;6.30;99.90;;;;;;5064949;28;20159;-70
2024/01/02 01:31:30;;;;;;;0.20;0.20;;;6.30;99.90;;;;;;5070436;28;20546;-69
2024/01/02 01:33:56;;;;;;;0.10;0.10;;;6.30;99.90;;;;;;5059514;28;20085;-69
2024/01/02 01:36:22;;;;;;;0.10;0.10;;;6.40;99.90;;;;;;5063803;28;20055;-68
2024/01/02 01:38:47;;;;;;;0.52;0.30;;;6.40;99.90;;;;;;5064574;28;20122;-68
2024/01/02 01:41:13;;;;;;;0.10;0.10;;;6.40;99.90;;;;;;5070780;28;20571;-69
2024/01/02 01:43:39;;;;;;;0.10;0.10;;;6.40;99.90;;;;;;5063037;28;20033;-69
2024/01/02 01:46:06;;;;;;;0.65;0.65;;;6.40;99.90;;;;;;5068803;28;20067;-67
2024/01/02 01:48:33;;;;;;;0.10;0.10;;;6.40;99.90;;;;;;5064193;28;20032;-68
2024/01/02 01:50:58;;;;;;;0.10;0.10;;;6.40;99.90;;;;;;5067216;28;20082;-68
2024/01/02 01:53:24;;;;;;;0.10;0.10;;;6.40;99.90;;;;;;5065991;28;20486;-69
2024/01/02 01:55:51;;;;;;;0.20;0.15;;;6.40;99.90;;;;;;5068277;28;20044;-68
2024/01/02 01:58:17;;;;;;;0.17;0.17;;;6.50;99.90;;;;;;5064105;28;20071;-69
2024/01/02 02:00:44;;;;;;;0.30;0.30;;;6.50;99.90;;;;;;5063525;28;20058;-69
2024/01/02 02:03:10;;;;;;;0.15;0.15;;;6.60;99.90;;;;;;5086444;28;20037;-69
2024/01/02 02:05:36;;;;;;;0.10;0.10;;;6.50;99.90;;;;;;5071901;28;20667;-69
2024/01/02 02:08:01;;;;;;;0.15;0.15;;;6.50;99.90;;;;;;5053191;28;20028;-68
2024/01/02 02:10:30;;;;;;;1.65;0.40;;;6.50;99.90;;;;;;5067952;28;20032;-67
2024/01/02 02:12:57;;;;;;;0.10;0.10;;;6.50;99.90;;;;;;5062438;28;20036;-68
2024/01/02 02:15:23;;;;;;;1.70;1.08;;;6.60;99.90;;;;;;5067694;28;20093;-69
2024/01/02 02:17:49;;;;;;;0.30;0.30;;;6.50;99.90;;;;;;5065178;28;20044;-69
2024/01/02 02:20:15;;;;;;;0.30;0.25;;;6.60;99.90;;;;;;5068245;28;20404;-68
2024/01/02 02:22:51;;;;;;;0.10;0.10;;;6.50;99.90;;;;;;5063175;28;20056;-70
2024/01/02 02:25:18;;;;;;;0.10;0.10;;;6.60;99.90;;;;;;5061227;28;20123;-69
2024/01/02 02:27:44;;;;;;;1.25;0.60;;;6.60;99.90;;;;;;5064639;28;20436;-68
2024/01/02 02:30:11;;;;;;;0.20;0.20;;;6.60;99.90;;;;;;5066678;28;20293;-68
2024/01/02 02:32:37;;;;;;;0.10;0.10;;;6.60;99.90;;;;;;5068893;28;20097;-69
2024/01/02 02:35:06;;;;;;;0.10;0.10;;;6.60;99.90;;;;;;5063316;28;20040;-70
2024/01/02 02:37:32;;;;;;;0.20;0.20;;;6.60;99.90;;;;;;5065285;28;20399;-69
2024/01/02 02:39:57;;;;;;;0.40;0.10;;;6.60;99.90;;;;;;5066303;28;20036;-69
2024/01/02 02:42:23;;;;;;;0.75;0.17;;;6.70;99.90;;;;;;5069342;28;20488;-67
2024/01/02 02:44:48;;;;;;;0.13;0.13;;;6.60;99.90;;;;;;5095174;28;20055;-68
2024/01/02 02:47:14;;;;;;;0.82;0.65;;;6.60;99.90;;;;;;5080439;28;20396;-68
2024/01/02 02:49:41;;;;;;;0.28;0.28;;;6.60;99.90;;;;;;5060855;28;20040;-68
2024/01/02 02:52:07;;;;;;;0.10;0.10;;;6.60;99.90;;;;;;5068661;28;20513;-70
2024/01/02 02:54:32;;;;;;;0.52;0.45;;;6.70;99.90;;;;;;5064851;28;20079;-68
2024/01/02 02:56:58;;;;;;;0.05;0.05;;;6.70;99.90;;;;;;5068432;28;20515;-70
2024/01/02 02:59:23;;;;;;;0.15;0.15;;;6.60;99.90;;;;;;5066804;28;20127;-69
2024/01/02 03:01:49;;;;;;;0.57;0.57;;;6.60;99.90;;;;;;5065500;28;20137;-68
2024/01/02 03:04:14;;;;;;;0.30;0.30;;;6.70;99.90;;;;;;5063642;28;20531;-68
2024/01/02 03:06:40;;;;;;;0.40;0.40;;;6.70;99.90;;;;;;5064500;28;20116;-69
2024/01/02 03:09:06;;;;;;;0.10;0.10;;;6.60;99.90;;;;;;5062785;28;20167;-69
2024/01/02 03:11:31;;;;;;;0.10;0.10;;;6.70;99.90;;;;;;5066040;28;20043;-68
2024/01/02 03:13:57;;;;;;;1.10;0.20;;;6.70;99.90;;;;;;5064452;28;20036;-68
2024/01/02 03:16:24;;;;;;;0.22;0.20;;;6.70;99.90;;;;;;5067272;28;20552;-69
2024/01/02 03:18:49;;;;;;;0.10;0.10;;;6.80;99.90;;;;;;5060308;28;20479;-69
2024/01/02 03:21:15;;;;;;;1.08;0.40;;;6.70;99.90;;;;;;5068814;28;20051;-69
2024/01/02 03:23:41;;;;;;;0.22;0.22;;;6.80;99.90;;;;;;5064019;28;20040;-68
2024/01/02 03:26:08;;;;;;;0.20;0.20;;;6.70;99.90;;;;;;5075256;28;20032;-70
2024/01/02 03:28:34;;;;;;;0.15;0.10;;;6.70;99.90;;;;;;5069253;28;20032;-70
2024/01/02 03:31:01;;;;;;;0.68;0.10;;;6.70;99.90;;;;;;5066579;28;20048;-68
2024/01/02 03:33:27;;;;;;;1.38;0.50;;;6.70;99.90;;;;;;5069877;28;20048;-67
2024/01/02 03:35:53;;;;;;;0.10;0.10;;;6.70;99.90;;;;;;5071170;28;20143;-68
2024/01/02 03:38:18;;;;;;;0.20;0.20;;;6.70;99.90;;;;;;5052245;28;20072;-68
2024/01/02 03:40:44;;;;;;;0.10;0.10;;;6.70;99.90;;;;;;5072372;28;20391;-68
2024/01/02 03:43:09;;;;;;;0.03;0.03;;;6.70;99.90;;;;;;5070772;28;20522;-69
2024/01/02 03:45:35;;;;;;;0.60;0.47;;;6.70;99.90;;;;;;5076351;28;20040;-68
2024/01/02 03:52:16;;;;;;;0.20;0.20;;;6.80;99.90;;;;;;5071002;28;20086;-69
2024/01/02 03:54:44;;;;;;;0.17;0.17;;;6.70;99.90;;;;;;5054711;28;20033;-67
2024/01/02 03:57:10;;;;;;;0.20;0.20;;;6.80;99.90;;;;;;5059650;28;20064;-70
2024/01/02 03:59:36;;;;;;;0.10;0.10;;;6.80;99.90;;;;;;5074251;28;20521;-68
2024/01/02 04:02:02;;;;;;;0.30;0.30;;;6.80;99.90;;;;;;5057986;28;20154;-68
2024/01/02 04:07:51;;;;;;;;;;;6.80;99.90;;;;;;5075365;28;20052;-67
2024/01/02 04:10:17;;;;;;;0.17;0.17;;;6.80;99.90;;;;;;5067881;28;19923;-68
2024/01/02 04:12:43;;;;;;;0.40;0.40;;;6.80;99.90;;;;;;5054446;28;20036;-68
2024/01/02 04:15:08;;;;;;;0.30;0.30;;;6.80;99.90;;;;;;5060825;28;20033;-69
2024/01/02 04:17:34;;;;;;;0.10;0.10;;;6.80;99.90;;;;;;5073343;28;20120;-69
2024/01/02 04:20:09;;;;;;;0.88;0.47;;;6.80;99.90;;;;;;5072902;28;20048;-70
2024/01/02 04:22:35;;;;;;;0.10;0.10;;;6.80;99.90;;;;;;5065848;28;20049;-69
2024/01/02 04:25:00;;;;;;;0.00;0.00;;;6.80;99.90;;;;;;5076090;28;20039;-71
2024/01/02 04:27:26;;;;;;;0.10;0.10;;;6.80;99.90;;;;;;5059474;28;20040;-68
2024/01/02 04:29:52;;;;;;;0.20;0.20;;;6.80;99.90;;;;;;5056545;28;20476;-69
2024/01/02 04:32:54;;;;;;;0.28;0.28;;;6.90;99.90;;;;;;5061814;28;20041;-69
2024/01/02 04:35:20;;;;;;;0.10;0.10;;;6.90;99.90;;;;;;5075162;28;20080;-71
2024/01/02 04:37:47;;;;;;;10.05;1.25;;;6.80;99.90;;;;;;5084602;28;20444;-69
2024/01/02 04:40:12;;;;;;;0.10;0.10;;;6.80;99.90;;;;;;5084649;28;20049;-68
2024/01/02 04:42:39;;;;;;;0.10;0.10;;;6.80;99.90;;;;;;5075427;28;20098;-68
2024/01/02 04:45:05;;;;;;;0.00;0.00;;;6.80;99.90;;;;;;5073374;28;20037;-68
2024/01/02 04:47:51;;;;;;;0.10;0.10;;;6.90;99.90;;;;;;5074057;28;20075;-68
2024/01/02 04:50:16;;;;;;;0.20;0.20;;;6.80;99.90;;;;;;5088198;28;20079;-68
2024/01/02 04:52:42;;;;;;;0.10;0.10;;;6.80;99.90;;;;;;5067193;28;20080;-69
2024/01/02 04:55:07;;;;;;;0.10;0.10;;;6.90;99.90;;;;;;5073997;28;20071;-68
2024/01/02 04:57:33;;;;;;;0.30;0.30;;;6.90;99.90;;;;;;5073729;28;20037;-68
2024/01/02 04:59:58;;;;;;;0.35;0.20;;;6.90;99.90;;;;;;5068654;28;20040;-69
2024/01/02 05:02:24;;;;;;;0.10;0.10;;;6.90;99.90;;;;;;5064400;28;20109;-69
2024/01/02 05:05:24;;;;;;;0.25;0.22;;;6.90;99.90;;;;;;5073539;28;20045;-69
2024/01/02 05:07:49;;;;;;;0.03;0.03;;;6.90;99.90;;;;;;5073670;28;20040;-68
2024/01/02 05:10:15;;;;;;;8.40;0.28;;;6.90;99.90;;;;;;5066357;28;20513;-70
2024/01/02 05:12:41;;;;;;;0.10;0.10;;;6.90;99.90;;;;;;5086809;28;20037;-68
2024/01/02 05:15:07;;;;;;;0.05;0.05;;;6.90;99.90;;;;;;5058758;28;20085;-68
2024/01/02 05:17:33;;;;;;;0.10;0.10;;;6.90;99.90;;;;;;5061684;28;20037;-68
2024/01/02 05:19:58;;;;;;;0.10;0.10;;;6.90;99.90;;;;;;5072917;28;20047;-67
2024/01/02 05:22:24;;;;;;;0.10;0.10;;;7.00;99.90;;;;;;5084218;28;20074;-68
2024/01/02 05:24:49;;;;;;;3.00;0.25;;;6.90;99.90;;;;;;5074786;28;20411;-69
2024/01/02 05:27:15;;;;;;;0.10;0.10;;;7.00;99.90;;;;;;5056578;28;20037;-68
2024/01/02 05:29:42;;;;;;;0.40;0.20;;;6.90;99.90;;;;;;5086821;28;20041;-68
2024/01/02 05:32:07;;;;;;;0.00;0.00;;;7.00;99.90;;;;;;5092510;28;20043;-67
2024/01/02 05:34:33;;;;;;;0.10;0.10;;;7.00;99.90;;;;;;5072323;28;20450;-69
2024/01/02 05:36:58;;;;;;;0.00;0.00;;;7.00;99.90;;;;;;5072801;28;20051;-69
2024/01/02 05:39:24;;;;;;;0.22;0.22;;;7.00;99.90;;;;;;5072861;28;20091;-68
2024/01/02 05:41:49;;;;;;;0.10;0.10;;;7.00;99.90;;;;;;5072359;28;20368;-69
2024/01/02 05:44:22;;;;;;;0.10;0.10;;;7.00;99.90;;;;;;5073507;28;20064;-68
2024/01/02 05:46:48;;;;;;;0.10;0.10;;;7.00;99.90;;;;;;5067650;28;20080;-68
2024/01/02 05:49:13;;;;;;;0.52;0.28;;;7.10;99.90;;;;;;5091977;28;20080;-68
2024/01/02 05:51:39;;;;;;;0.00;0.00;;;7.00;99.90;;;;;;5091089;28;20032;-67
2024/01/02 05:54:04;;;;;;;0.00;0.00;;;7.10;99.90;;;;;;5072371;28;20040;-68
2024/01/02 05:56:30;;;;;;;0.10;0.10;;;7.00;99.90;;;;;;5072608;28;20105;-68
2024/01/02 05:58:55;;;;;;;0.20;0.20;;;7.10;99.90;;;;;;5072428;28;20067;-69
2024/01/02 06:01:22;;;;;;;0.10;0.10;;;7.10;99.90;;;;;;5070742;28;20048;-70
2024/01/02 06:03:48;;;;;;;0.03;0.03;;;7.10;99.90;;;;;;5076768;28;20131;-69
2024/01/02 06:06:13;;;;;;;0.08;0.08;;;7.10;99.90;;;;;;5074275;28;20072;-68
2024/01/02 06:08:39;;;;;;;0.20;0.20;;;7.10;99.90;;;;;;5068376;28;20548;-67
2024/01/02 06:11:05;;;;;;;0.30;0.30;;;7.20;99.90;;;;;;5072089;28;20438;-68
2024/01/02 06:13:31;;;;;;;0.10;0.10;;;7.20;99.90;;;;;;5059071;28;20381;-68
2024/01/02 06:15:58;;;;;;;0.20;0.20;;;7.10;99.90;;;;;;5053779;28;20048;-68
2024/01/02 06:18:24;;;;;;;0.10;0.10;;;7.20;99.90;;;;;;5067969;28;20047;-67
2024/01/02 06:21:29;;;;;;;0.10;0.10;;;7.20;99.90;;;;;;5074512;28;20056;-68
2024/01/02 06:23:55;;;;;;;0.20;0.10;;;7.20;99.90;;;;;;5071414;28;20395;-67
2024/01/02 06:26:20;;;;;;;0.10;0.10;;;7.30;99.90;;;;;;5073928;28;20024;-68
2024/01/02 06:28:46;;;;;;;0.10;0.10;;;7.30;99.90;;;;;;5079234;28;20041;-68
2024/01/02 06:31:11;;;;;;;0.10;0.10;;;7.30;99.90;;;;;;5069103;28;20032;-69
2024/01/02 06:33:39;;;;;;;0.10;0.10;;;7.30;99.90;;;;;;5072060;28;20036;-68
2024/01/02 06:36:05;;;;;;;0.10;0.10;;;7.40;99.90;;;;;;5059145;28;20041;-67
2024/01/02 06:38:31;;;;;;;0.10;0.10;;;7.40;99.90;;;;;;5073303;28;20108;-71
2024/01/02 06:41:03;;;;;;;0.10;0.10;;;7.50;99.90;;;;;;5071520;28;20127;-68
2024/01/02 06:43:28;;;;;;;0.10;0.10;;;7.50;99.90;;;;;;5085784;28;20037;-68
2024/01/02 06:45:54;;;;;;;0.00;0.00;;;7.60;99.90;;;;;;5053523;28;20082;-68
2024/01/02 06:48:20;;;;;;;0.00;0.00;;;7.60;99.90;;;;;;5052436;28;20098;-68
2024/01/02 06:50:45;;;;;;;0.10;0.10;;;7.60;99.90;;;;;;5067320;28;20138;-68
2024/01/02 06:53:11;;;;;;;0.00;0.00;;;7.60;99.90;;;;;;5073589;28;20098;-69
2024/01/02 06:55:37;;;;;;;0.10;0.10;;;7.70;99.90;;;;;;5071372;28;20483;-68
2024/01/02 06:58:02;;;;;;;0.00;0.00;;;7.70;99.90;;;;;;5071319;28;20418;-68
2024/01/02 07:00:28;;;;;;;0.00;0.00;;;7.80;99.90;;;;;;5071067;28;20506;-69
2024/01/02 07:02:54;;;;;;;0.00;0.00;;;7.80;99.90;;;;;;5065980;28;20036;-68
2024/01/02 07:05:19;;;;;;;0.10;0.10;;;7.80;99.90;;;;;;5075358;28;20111;-71
2024/01/02 07:07:46;;;;;;;0.00;0.00;;;7.90;99.90;;;;;;5073964;28;20390;-69
2024/01/02 07:10:11;;;;;;;0.03;0.03;;;8.00;99.90;;;;;;5077296;28;20032;-68
2024/01/02 07:12:37;;;;;;;0.10;0.10;;;8.00;99.90;;;;;;5066775;28;20048;-69
2024/01/02 07:15:04;;;;;;;0.40;0.10;;;8.00;99.90;;;;;;5066439;28;20403;-69
2024/01/02 07:17:31;;;;;;;0.10;0.10;;;8.10;99.90;;;;;;5091560;28;20037;-69
2024/01/02 07:19:58;;;;;;;0.00;0.00;;;8.10;99.90;;;;;;5065870;28;20036;-68
2024/01/02 07:22:24;;;;;;;0.10;0.10;;;8.10;99.90;;;;;;5065922;28;20039;-68
2024/01/02 07:24:49;;;;;;;0.00;0.00;;;8.20;99.90;;;;;;5088168;28;20033;-69
2024/01/02 07:27:15;;;;;;;0.15;0.10;;;8.20;99.90;;;;;;5070348;28;20086;-68
2024/01/02 07:29:41;;;;;;;0.10;0.10;;;8.30;99.90;;;;;;5072034;28;20036;-69
2024/01/02 07:32:07;;;;;;;0.28;0.20;;;8.30;99.90;;;;;;5060957;28;20045;-71
2024/01/02 07:34:46;;;;;;;0.10;0.10;;;8.30;99.90;;;;;;5065442;28;20036;-70
2024/01/02 07:37:12;;;;;;;0.10;0.10;;;8.40;99.90;;;;;;5068166;28;20215;-70
2024/01/02 07:39:38;;;;;;;0.90;0.20;;;8.50;99.90;;;;;;5061352;28;20406;-70
2024/01/02 07:42:08;;;;;;;0.20;0.20;;;8.50;99.90;;;;;;5064938;28;20430;-69
2024/01/02 07:44:34;;;;;;;0.10;0.10;;;8.60;99.90;;;;;;5067589;28;20048;-70
2024/01/02 07:47:00;;;;;;;0.10;0.10;;;8.60;99.90;;;;;;5065066;28;20355;-69
2024/01/02 07:49:26;;;;;;;0.32;0.32;;;8.70;99.90;;;;;;5064163;28;20086;-71
2024/01/02 07:51:52;;;;;;;0.50;0.50;;;8.80;99.90;;;;;;5066483;28;20433;-71
2024/01/02 07:54:18;;;;;;;0.13;0.10;;;8.90;99.90;;;;;;5068493;28;20032;-70
2024/01/02 07:56:44;;;;;;;1.10;1.10;;;8.90;99.90;;;;;;5067707;28;20045;-69
2024/01/02 07:59:11;;;;;;;0.00;0.00;;;9.00;99.90;;;;;;5077701;28;20371;-68
2024/01/02 08:01:36;;;;;;;0.50;0.50;;;9.10;99.90;;;;;;5060247;28;20479;-67
2024/01/02 08:04:02;;;;;;;0.30;0.30;;;9.30;99.90;;;;;;5060541;28;20056;-69
2024/01/02 08:06:28;;;;;;;0.52;0.40;;;9.30;99.90;;;;;;5064700;28;20041;-69
2024/01/02 08:08:53;;;;;;;0.20;0.20;;;9.40;99.90;;;;;;5064615;28;20039;-69
2024/01/02 08:11:19;;;;;;;0.17;0.17;;;9.60;99.90;;;;;;5063814;28;20041;-67
2024/01/02 08:13:44;;;;;;;0.98;0.47;;;9.60;99.90;;;;;;5066769;28;20118;-69
2024/01/02 08:16:10;;;;;;;0.10;0.10;;;9.70;99.90;;;;;;5067340;28;20043;-67
2024/01/02 08:18:40;;;;;;;0.85;0.28;;;9.70;99.90;;;;;;5096849;28;20040;-70
2024/01/02 08:21:09;;;;;;;0.45;0.17;;;9.90;99.90;;;;;;5070324;28;20051;-69
2024/01/02 08:23:38;;;;;;;0.10;0.10;;;9.90;99.90;;;;;;5065455;28;20513;-68
2024/01/02 08:26:06;;;;;;;0.98;0.30;;;9.90;99.90;;;;;;5068499;28;20036;-70
2024/01/02 08:28:32;;;;;;;0.10;0.10;;;10.00;99.90;;;;;;5066189;28;20044;-68
2024/01/02 08:30:57;;;;;;;0.40;0.22;;;10.00;99.90;;;;;;5072797;28;20046;-71
2024/01/02 08:33:23;;;;;;;0.50;0.50;;;10.00;99.90;;;;;;5066633;28;20364;-68
2024/01/02 08:35:49;;;;;;;1.10;0.43;;;10.10;99.90;;;;;;5067346;28;20771;-69
2024/01/02 08:38:14;;;;;;;1.45;0.43;;;10.10;99.90;;;;;;5066121;28;20036;-69
2024/01/02 08:40:40;;;;;;;0.77;0.77;;;10.10;99.90;;;;;;5070074;28;20387;-69
2024/01/02 08:43:06;;;;;;;0.10;0.10;;;10.20;99.90;;;;;;5061595;28;20044;-71
2024/01/02 08:45:31;;;;;;;0.20;0.20;;;10.20;99.90;;;;;;5065515;28;20105;-68
2024/01/02 08:47:57;;;;;;;0.10;0.10;;;10.30;99.90;;;;;;5079538;28;20463;-70
2024/01/02 08:50:23;;;;;;;0.85;0.85;;;10.30;99.90;;;;;;5063566;28;20047;-69
2024/01/02 08:52:49;;;;;;;0.55;0.38;;;10.40;99.90;;;;;;5049892;28;20433;-70
2024/01/02 08:55:15;;;;;;;0.10;0.10;;;10.40;99.90;;;;;;5064641;28;20046;-68
2024/01/02 08:57:40;;;;;;;0.25;0.25;;;10.50;99.90;;;;;;5061850;28;20040;-69
2024/01/02 09:00:07;;;;;;;0.00;0.00;;;10.50;99.90;;;;;;5071645;28;20079;-68
2024/01/02 09:02:33;;;;;;;0.10;0.10;;;10.50;99.90;;;;;;5047641;28;20044;-71
2024/01/02 09:04:59;;;;;;;6.45;0.40;;;10.60;99.90;;;;;;5059582;28;20052;-70
2024/01/02 09:07:24;;;;;;;0.38;0.38;;;10.60;99.90;;;;;;5069364;28;20029;-69
2024/01/02 09:09:50;;;;;;;0.20;0.20;;;10.60;99.90;;;;;;5065179;28;20405;-68
2024/01/02 09:12:16;;;;;;;2.67;1.00;;;10.50;99.90;;;;;;5063121;28;20079;-68
2024/01/02 09:14:41;;;;;;;0.22;0.22;;;10.50;99.90;;;;;;5064852;28;20055;-69
2024/01/02 09:17:07;;;;;;;1.73;0.52;;;10.60;99.90;;;;;;5068661;28;20032;-69
2024/01/02 09:19:32;;;;;;;1.48;0.10;;;10.60;99.90;;;;;;5064541;28;20040;-71
2024/01/02 09:21:58;;;;;;;0.10;0.10;;;10.60;99.90;;;;;;5069849;28;20098;-70
2024/01/02 09:24:24;;;;;;;0.10;0.10;;;10.60;99.90;;;;;;5063681;28;20036;-72
2024/01/02 09:26:54;;;;;;;0.00;0.00;;;10.70;99.90;;;;;;5049825;28;20102;-71
2024/01/02 09:29:21;;;;;;;0.20;0.20;;;10.70;99.90;;;;;;5063944;28;20359;-69
2024/01/02 09:31:47;;;;;;;0.30;0.30;;;10.70;99.90;;;;;;5065142;28;20403;-68
2024/01/02 09:34:13;;;;;;;0.10;0.10;;;10.70;99.90;;;;;;5061045;28;20033;-68
2024/01/02 09:36:38;;;;;;;1.25;0.63;;;10.60;99.90;;;;;;5065013;28;20052;-70
2024/01/02 09:39:04;;;;;;;0.98;0.17;;;10.70;99.90;;;;;;5088902;28;20066;-70
2024/01/02 09:41:45;;;;;;;1.02;1.02;;;10.60;99.90;;;;;;5064776;28;20036;-72
2024/01/02 09:44:36;;;;;;;1.23;0.55;;;10.70;99.90;;;;;;5064705;28;20048;-67
2024/01/02 09:47:10;;;;;;;0.10;0.10;;;10.70;99.90;;;;;;5050550;28;20040;-68
2024/01/02 09:49:48;;;;;;;0.70;0.70;;;10.70;99.90;;;;;;5052809;28;20044;-67
2024/01/02 09:52:40;;;;;;;0.10;0.10;;;10.70;99.90;;;;;;5059860;28;20032;-69
2024/01/02 09:55:34;;;;;;;0.85;0.65;;;10.70;99.90;;;;;;5066793;28;20139;-67
2024/01/02 09:58:29;;;;;;;1.08;0.40;;;10.70;99.90;;;;;;5061496;28;20041;-68
2024/01/02 10:01:17;;;;;;;16.77;0.63;;;10.80;99.90;;;;;;5049725;28;20041;-67
2024/01/02 10:04:30;;;;;;;0.35;0.35;;;10.80;99.90;;;;;;5049283;28;20399;-68
2024/01/02 10:07:21;;;;;;;0.40;0.40;;;10.80;99.90;;;;;;5052132;28;20503;-67
2024/01/02 10:10:08;;;;;;;0.13;0.13;;;10.80;99.90;;;;;;5050162;28;20384;-68
2024/01/02 10:12:47;;;;;;;0.00;0.00;;;10.80;99.90;;;;;;5059031;28;20048;-68
2024/01/02 10:15:23;;;;;;;0.20;0.20;;;10.90;99.90;;;;;;5054496;28;20040;-68
2024/01/02 10:18:22;;;;;;;0.10;0.10;;;10.80;99.90;;;;;;5059180;28;20391;-69
2024/01/02 10:20:57;;;;;;;0.05;0.05;;;10.90;99.90;;;;;;5065496;28;20467;-67
2024/01/02 10:23:38;;;;;;;0.20;0.20;;;10.90;99.90;;;;;;5054939;28;20098;-69
2024/01/02 10:26:07;;;;;;;0.20;0.20;;;10.80;99.90;;;;;;5064625;28;20051;-71
2024/01/02 10:28:36;;;;;;;0.40;0.40;;;10.80;99.90;;;;;;5044766;28;20051;-70
2024/01/02 10:31:25;;;;;;;0.08;0.08;;;10.80;99.90;;;;;;5068011;28;20040;-72
2024/01/02 10:34:22;;;;;;;0.17;0.17;;;10.80;99.90;;;;;;5048780;28;20083;-72
2024/01/02 10:36:56;;;;;;;0.35;0.35;;;10.90;99.90;;;;;;5064625;28;20047;-72
2024/01/02 10:39:33;;;;;;;0.08;0.08;;;10.90;99.90;;;;;;5048417;28;20047;-70
2024/01/02 10:42:02;;;;;;;0.10;0.10;;;10.90;99.90;;;;;;5048921;28;20041;-70
2024/01/02 10:44:48;;;;;;;0.03;0.03;;;11.00;99.90;;;;;;5059159;28;20033;-72
2024/01/02 10:47:24;;;;;;;0.30;0.25;;;11.00;99.90;;;;;;5048928;28;20110;-72
2024/01/02 10:49:52;;;;;;;0.10;0.10;;;11.00;99.90;;;;;;5048702;28;20079;-72
2024/01/02 10:52:24;;;;;;;0.30;0.30;;;11.00;99.90;;;;;;5048420;28;20045;-72
2024/01/02 10:55:07;;;;;;;0.28;0.28;;;11.00;99.90;;;;;;5060339;28;20050;-72
2024/01/02 10:57:46;;;;;;;0.30;0.30;;;11.10;99.90;;;;;;5075241;28;20130;-72
2024/01/02 11:00:21;;;;;;;0.57;0.57;;;11.00;99.90;;;;;;5054971;28;20037;-73
2024/01/02 11:02:51;;;;;;;0.35;0.35;;;11.00;99.90;;;;;;5067059;28;20089;-71
2024/01/02 11:05:41;;;;;;;0.10;0.10;;;11.10;99.90;;;;;;5064670;28;20047;-73
2024/01/02 11:08:17;;;;;;;0.28;0.28;;;11.10;99.90;;;;;;5067037;28;22069;-74
2024/01/02 11:10:57;;;;;;;0.17;0.17;;;11.10;99.90;;;;;;5052819;28;20442;-71
2024/01/02 11:13:25;;;;;;;4.07;0.70;;;11.10;99.90;;;;;;5059052;28;20067;-71
2024/01/02 11:15:56;;;;;;;0.77;0.15;;;11.10;99.90;;;;;;5038076;28;20059;-71
2024/01/02 11:18:24;;;;;;;0.95;0.95;;;11.10;99.90;;;;;;5056223;28;20037;-71
2024/01/02 11:20:58;;;;;;;0.52;0.40;;;11.20;99.90;;;;;;5060828;28;20037;-70
2024/01/02 11:23:29;;;;;;;0.13;0.13;;;11.10;99.90;;;;;;5049440;28;20257;-71
2024/01/02 11:26:06;;;;;;;0.15;0.15;;;11.20;99.90;;;;;;5047829;28;20053;-71
2024/01/02 11:28:36;;;;;;;0.40;0.40;;;11.20;99.90;;;;;;5048840;28;20415;-72
2024/01/02 11:31:04;;;;;;;0.45;0.10;;;11.20;99.90;;;;;;5082571;28;20052;-73
2024/01/02 11:34:00;;;;;;;0.10;0.10;;;11.20;99.90;;;;;;5056615;28;20053;-73
2024/01/02 11:37:08;;;;;;;1.08;0.65;;;11.20;99.90;;;;;;5062374;28;20066;-74
2024/01/02 11:39:53;;;;;;;0.20;0.10;;;11.20;99.90;;;;;;5081188;28;20037;-73
2024/01/02 11:42:38;;;;;;;1.55;0.32;;;11.20;99.90;;;;;;5066996;28;20052;-72
2024/01/02 11:45:18;;;;;;;0.20;0.20;;;11.20;99.90;;;;;;5064878;28;20465;-72
2024/01/02 11:47:46;;;;;;;0.10;0.10;;;11.20;99.90;;;;;;5071034;28;20039;-73
2024/01/02 11:50:15;;;;;;;1.45;0.85;;;11.10;99.90;;;;;;5062440;28;20431;-73
2024/01/02 11:53:03;;;;;;;0.20;0.20;;;11.20;99.90;;;;;;5062280;28;20051;-71
2024/01/02 11:55:51;;;;;;;0.00;0.00;;;11.10;99.90;;;;;;5064202;28;20037;-71
2024/01/02 11:58:31;;;;;;;0.00;0.00;;;11.10;99.90;;;;;;5062081;28;20040;-74
2024/01/02 12:01:43;;;;;;;0.28;0.22;;;11.10;99.90;;;;;;5064911;28;20040;-71
2024/01/02 12:04:13;;;;;;;0.08;0.08;;;11.10;99.90;;;;;;5066001;28;20051;-73
2024/01/02 12:06:59;;;;;;;1.08;0.88;;;11.10;99.90;;;;;;5049489;28;20044;-73
2024/01/02 12:09:28;;;;;;;0.17;0.17;;;11.10;99.90;;;;;;5086382;28;20395;-73
2024/01/02 12:12:21;;;;;;;0.73;0.45;;;11.10;99.90;;;;;;5061361;28;20033;-73
2024/01/02 12:15:12;;;;;;;0.22;0.22;;;11.10;99.90;;;;;;5088831;28;20178;-74
2024/01/02 12:17:55;;;;;;;1.08;0.22;;;11.10;99.90;;;;;;5068807;28;20035;-73
2024/01/02 12:20:23;;;;;;;0.38;0.38;;;11.10;99.90;;;;;;5086257;28;20044;-73
2024/01/02 12:22:49;;;;;;;0.75;0.75;;;11.00;99.90;;;;;;5090203;28;20078;-72
2024/01/02 12:25:15;;;;;;;0.63;0.20;;;11.10;99.90;;;;;;5057350;28;20054;-72
2024/01/02 12:27:45;;;;;;;0.10;0.10;;;11.10;99.90;;;;;;5060392;28;20037;-72
2024/01/02 12:30:22;;;;;;;0.10;0.10;;;11.10;99.90;;;;;;5060519;28;20128;-71
2024/01/02 12:33:03;;;;;;;0.10;0.10;;;11.10;99.90;;;;;;5058754;28;20040;-73
2024/01/02 12:35:36;;;;;;;0.80;0.20;;;11.10;99.90;;;;;;5062075;28;20044;-72
2024/01/02 12:38:21;;;;;;;0.30;0.30;;;11.10;99.90;;;;;;5064055;28;20052;-72
2024/01/02 12:40:48;;;;;;;0.35;0.32;;;11.10;99.90;;;;;;5067285;28;20029;-72
2024/01/02 12:43:22;;;;;;;0.10;0.10;;;11.10;99.90;;;;;;5060211;28;20041;-72
2024/01/02 12:46:12;;;;;;;0.00;0.00;;;11.10;99.90;;;;;;5062692;28;20032;-72
2024/01/02 12:48:52;;;;;;;0.22;0.22;;;11.10;99.90;;;;;;5062653;28;20045;-72
2024/01/02 12:51:21;;;;;;;1.45;0.20;;;11.10;99.90;;;;;;5068019;28;20535;-71
2024/01/02 12:53:50;;;;;;;0.73;0.10;;;11.00;99.90;;;;;;5064738;28;20045;-71
2024/01/02 12:56:20;;;;;;;0.10;0.10;;;11.10;99.90;;;;;;5063085;28;20112;-72
2024/01/02 12:58:46;;;;;;;0.22;0.10;;;11.10;99.90;;;;;;5065313;28;20048;-71
2024/01/02 13:01:12;;;;;;;0.00;0.00;;;11.10;99.90;;;;;;5067163;28;20487;-71
2024/01/02 13:03:42;;;;;;;0.00;0.00;;;11.10;99.90;;;;;;5065791;28;20036;-71
2024/01/02 13:06:09;;;;;;;0.10;0.10;;;11.00;99.90;;;;;;5089414;28;20098;-71
2024/01/02 13:08:35;;;;;;;0.77;0.08;;;11.10;99.90;;;;;;5065300;28;20581;-71
2024/01/02 13:11:02;;;;;;;0.10;0.10;;;11.00;99.90;;;;;;5062027;28;20040;-70
2024/01/02 13:13:27;;;;;;;0.85;0.43;;;11.00;99.90;;;;;;5064739;28;20052;-70